Time;durP1;ratioP1;P1;durP2;ratioP2;P2;SDS_P1;SDS_P2;PMS_P1;PMS_P2;Temp;Humidity;BMP_temperature;BMP_pressure;BME280_temperature;BME280_humidity;BME280_pressure;Samples;Min_cycle;Max_cycle;Signal;HPM_P1;HPM_P2
2021/01/29 00:01:42;;;;;;;4.38;1.30;;;6.60;93.80;;;;;;5031596;28;20072;-75
2021/01/29 00:04:07;;;;;;;3.50;1.95;;;6.60;93.90;;;;;;5033056;28;20389;-74
2021/01/29 00:06:33;;;;;;;4.72;2.15;;;6.60;93.80;;;;;;5035453;28;20147;-75
2021/01/29 00:08:59;;;;;;;5.80;1.63;;;6.60;93.80;;;;;;5017218;28;20136;-76
2021/01/29 00:11:24;;;;;;;2.88;1.20;;;6.60;93.80;;;;;;5018235;28;20458;-75
2021/01/29 00:13:50;;;;;;;1.05;0.85;;;6.60;93.80;;;;;;5035649;28;20026;-75
2021/01/29 00:16:15;;;;;;;3.40;1.30;;;6.60;93.90;;;;;;5035223;28;20018;-76
2021/01/29 00:18:41;;;;;;;3.38;1.48;;;6.60;93.90;;;;;;5035591;28;20029;-74
2021/01/29 00:21:07;;;;;;;4.63;1.33;;;6.60;94.00;;;;;;5035178;28;20026;-74
2021/01/29 00:23:32;;;;;;;5.20;1.30;;;6.60;93.90;;;;;;5017824;28;20026;-74
2021/01/29 00:25:58;;;;;;;3.17;1.73;;;6.60;93.90;;;;;;5034594;28;20092;-74
2021/01/29 00:28:24;;;;;;;2.35;1.10;;;6.60;93.90;;;;;;5034523;28;20350;-75
2021/01/29 00:30:52;;;;;;;3.47;1.35;;;6.60;94.00;;;;;;5035278;28;20029;-74
2021/01/29 00:33:20;;;;;;;3.13;1.10;;;6.60;93.90;;;;;;5034652;28;20025;-74
2021/01/29 00:35:46;;;;;;;1.90;0.95;;;6.60;93.90;;;;;;5017426;28;20109;-74
2021/01/29 00:38:12;;;;;;;2.95;1.35;;;6.60;93.90;;;;;;5016397;28;20430;-74
2021/01/29 00:40:38;;;;;;;2.83;1.20;;;6.60;93.90;;;;;;5017121;28;20029;-74
2021/01/29 00:43:05;;;;;;;3.10;1.05;;;6.60;93.90;;;;;;5034282;28;20350;-75
2021/01/29 00:45:33;;;;;;;3.42;1.38;;;6.60;93.90;;;;;;5017179;28;20529;-74
2021/01/29 00:47:59;;;;;;;3.53;1.65;;;6.60;93.90;;;;;;5034163;28;20104;-75
2021/01/29 00:50:26;;;;;;;3.78;1.40;;;6.60;93.90;;;;;;5016943;28;20052;-74
2021/01/29 00:52:52;;;;;;;3.55;1.27;;;6.60;93.90;;;;;;5017001;28;20018;-74
2021/01/29 00:55:19;;;;;;;3.33;1.25;;;6.70;94.20;;;;;;5034377;28;20026;-74
2021/01/29 00:57:45;;;;;;;4.47;1.48;;;6.70;93.90;;;;;;5017119;28;20025;-74
2021/01/29 01:00:13;;;;;;;4.40;1.88;;;6.70;93.90;;;;;;5016182;28;20027;-76
2021/01/29 01:02:39;;;;;;;4.35;1.63;;;6.70;93.90;;;;;;5034686;28;20025;-75
2021/01/29 01:05:06;;;;;;;4.75;1.55;;;6.70;93.90;;;;;;5033970;28;20028;-74
2021/01/29 01:07:31;;;;;;;6.75;1.88;;;6.70;93.90;;;;;;5016665;28;20484;-74
2021/01/29 01:09:57;;;;;;;6.38;2.03;;;6.70;93.90;;;;;;5016230;28;20022;-76
2021/01/29 01:12:24;;;;;;;1.85;0.98;;;6.70;93.90;;;;;;5016822;28;20029;-73
2021/01/29 01:14:50;;;;;;;3.25;1.25;;;6.70;93.90;;;;;;5034229;28;20489;-75
2021/01/29 01:17:16;;;;;;;6.63;1.92;;;6.70;93.90;;;;;;5034013;28;20041;-74
2021/01/29 01:19:41;;;;;;;2.20;1.52;;;6.70;93.90;;;;;;5034386;28;20022;-74
2021/01/29 01:22:08;;;;;;;1.80;1.05;;;6.70;93.90;;;;;;5033676;28;20083;-74
2021/01/29 01:24:39;;;;;;;2.53;1.05;;;6.70;93.90;;;;;;5034009;28;20052;-74
2021/01/29 01:27:09;;;;;;;6.35;1.60;;;6.70;93.90;;;;;;5015987;28;20044;-75
2021/01/29 01:29:35;;;;;;;2.60;1.10;;;6.70;93.90;;;;;;5033471;28;20067;-74
2021/01/29 01:32:01;;;;;;;3.05;1.25;;;6.70;93.90;;;;;;5015784;28;20037;-75
2021/01/29 01:34:26;;;;;;;2.65;1.30;;;6.70;93.90;;;;;;5034027;28;20021;-74
2021/01/29 01:36:52;;;;;;;3.65;1.83;;;6.70;93.90;;;;;;5016260;28;20021;-74
2021/01/29 01:39:18;;;;;;;6.50;1.58;;;6.70;93.90;;;;;;5015556;28;20397;-74
2021/01/29 01:41:44;;;;;;;2.17;1.15;;;6.80;93.90;;;;;;5033865;28;20044;-74
2021/01/29 01:44:37;;;;;;;2.35;1.17;;;6.80;93.90;;;;;;5032985;28;20378;-73
2021/01/29 01:47:12;;;;;;;3.13;1.40;;;6.70;93.80;;;;;;5030413;28;20037;-74
2021/01/29 01:49:37;;;;;;;5.28;1.20;;;6.80;93.90;;;;;;5033987;28;20025;-74
2021/01/29 01:52:12;;;;;;;2.03;1.00;;;6.70;93.90;;;;;;5033220;28;20517;-74
2021/01/29 01:54:54;;;;;;;3.60;1.25;;;6.80;93.90;;;;;;5015650;28;20033;-74
2021/01/29 01:57:23;;;;;;;3.25;1.30;;;6.80;93.90;;;;;;5033194;28;20029;-75
2021/01/29 01:59:54;;;;;;;2.63;1.10;;;6.80;93.90;;;;;;5015554;28;20400;-75
2021/01/29 02:02:25;;;;;;;3.05;1.30;;;6.80;94.00;;;;;;5015182;28;20507;-76
2021/01/29 02:04:52;;;;;;;2.58;0.88;;;6.80;93.90;;;;;;5015911;28;20026;-75
2021/01/29 02:07:33;;;;;;;3.53;1.17;;;6.80;93.90;;;;;;5015041;28;20112;-76
2021/01/29 02:10:01;;;;;;;2.25;1.20;;;6.80;93.90;;;;;;5015873;28;20029;-75
2021/01/29 02:12:27;;;;;;;1.67;0.80;;;6.80;93.90;;;;;;5033375;28;20112;-75
2021/01/29 02:14:53;;;;;;;2.08;1.02;;;6.80;93.90;;;;;;5033466;28;20067;-75
2021/01/29 02:17:46;;;;;;;4.45;1.38;;;6.80;93.90;;;;;;5032405;28;20025;-75
2021/01/29 02:20:41;;;;;;;4.03;1.42;;;6.90;93.90;;;;;;5015082;28;20021;-75
2021/01/29 02:23:29;;;;;;;3.90;1.65;;;6.90;93.90;;;;;;5033129;28;20044;-75
2021/01/29 02:26:24;;;;;;;2.78;1.25;;;6.90;93.90;;;;;;5034148;28;20025;-75
2021/01/29 02:29:15;;;;;;;3.90;1.30;;;6.90;93.90;;;;;;5020024;28;20025;-75
2021/01/29 02:32:14;;;;;;;3.03;1.63;;;6.90;93.90;;;;;;5015948;28;20335;-74
2021/01/29 02:34:42;;;;;;;4.25;1.52;;;6.90;93.90;;;;;;5015510;28;20036;-74
2021/01/29 02:37:46;;;;;;;2.50;1.33;;;6.90;94.00;;;;;;5032307;28;20067;-75
2021/01/29 02:40:26;;;;;;;3.35;1.75;;;6.90;93.90;;;;;;5032184;28;20025;-74
2021/01/29 02:43:15;;;;;;;3.50;1.77;;;6.90;94.00;;;;;;5014608;28;20211;-74
2021/01/29 02:45:45;;;;;;;5.20;1.88;;;6.90;94.00;;;;;;5032788;28;20032;-74
2021/01/29 02:48:16;;;;;;;2.55;1.20;;;6.90;94.10;;;;;;5014386;28;20017;-74
2021/01/29 02:51:05;;;;;;;5.07;2.50;;;6.90;94.30;;;;;;5032684;28;20048;-74
2021/01/29 02:53:38;;;;;;;2.80;1.15;;;6.90;94.00;;;;;;5032655;28;20544;-74
2021/01/29 02:56:14;;;;;;;6.20;2.58;;;7.00;94.10;;;;;;5014981;28;20021;-74
2021/01/29 02:58:48;;;;;;;2.47;1.10;;;7.00;94.10;;;;;;5032775;28;20067;-74
2021/01/29 03:01:32;;;;;;;4.47;1.00;;;7.00;94.10;;;;;;5014058;28;20049;-74
2021/01/29 03:04:06;;;;;;;4.70;1.77;;;7.00;94.10;;;;;;5032525;28;20487;-73
2021/01/29 03:07:22;;;;;;;6.50;2.15;;;7.00;94.10;;;;;;5032421;28;20022;-74
2021/01/29 03:09:58;;;;;;;3.95;1.73;;;7.00;94.10;;;;;;4951838;29;20057;-73
2021/01/29 03:12:43;;;;;;;3.08;2.00;;;7.00;94.10;;;;;;4951302;29;20081;-74
2021/01/29 03:15:17;;;;;;;7.82;1.67;;;7.00;94.20;;;;;;4987474;28;20184;-72
2021/01/29 03:17:55;;;;;;;3.40;1.55;;;7.00;94.20;;;;;;5032132;28;20025;-75
2021/01/29 03:20:31;;;;;;;3.28;1.55;;;7.10;94.20;;;;;;5013653;28;20445;-74
2021/01/29 03:23:28;;;;;;;2.88;1.42;;;7.00;94.20;;;;;;5032232;28;20022;-74
2021/01/29 03:25:59;;;;;;;2.47;1.00;;;7.10;94.20;;;;;;5005844;28;20030;-74
2021/01/29 03:28:31;;;;;;;;;;;7.10;94.20;;;;;;5014098;28;20021;-74
2021/01/29 03:30:59;;;;;;;;;;;7.10;94.20;;;;;;4995076;28;20389;-74
2021/01/29 03:33:28;;;;;;;2.17;1.10;;;7.00;94.20;;;;;;5011497;28;19905;-75
2021/01/29 03:36:04;;;;;;;3.10;1.75;;;7.10;94.20;;;;;;5010924;28;20454;-74
2021/01/29 03:38:48;;;;;;;4.65;2.05;;;7.10;94.20;;;;;;4993478;28;20477;-75
2021/01/29 03:41:22;;;;;;;5.05;1.80;;;7.10;94.20;;;;;;4993398;28;20049;-74
2021/01/29 03:44:01;;;;;;;6.03;2.13;;;7.10;94.20;;;;;;5011287;28;20103;-74
2021/01/29 03:46:36;;;;;;;4.85;1.42;;;7.20;94.30;;;;;;4993067;28;20463;-74
2021/01/29 03:49:28;;;;;;;7.00;1.80;;;7.20;94.30;;;;;;5011237;28;20018;-75
2021/01/29 03:52:10;;;;;;;3.42;1.20;;;7.20;94.30;;;;;;4997730;28;20038;-74
2021/01/29 03:54:48;;;;;;;3.42;1.23;;;7.20;94.50;;;;;;5011154;28;20048;-75
2021/01/29 03:57:20;;;;;;;2.67;1.30;;;7.20;94.30;;;;;;4992647;28;20034;-74
2021/01/29 04:00:11;;;;;;;3.20;1.35;;;7.20;94.30;;;;;;4993487;28;20034;-75
2021/01/29 04:02:53;;;;;;;2.37;0.87;;;7.30;94.30;;;;;;4993170;28;20033;-75
2021/01/29 04:05:54;;;;;;;3.60;1.50;;;7.30;94.30;;;;;;4992955;28;20022;-75
2021/01/29 04:08:38;;;;;;;3.15;1.10;;;7.30;94.30;;;;;;5010420;28;20021;-75
2021/01/29 04:11:07;;;;;;;1.95;0.88;;;7.30;94.40;;;;;;5010919;28;20105;-74
2021/01/29 04:13:41;;;;;;;2.15;1.27;;;7.20;94.30;;;;;;5011098;28;20021;-74
2021/01/29 04:16:14;;;;;;;1.60;0.80;;;7.30;94.30;;;;;;4994408;28;20378;-75
2021/01/29 04:18:53;;;;;;;1.58;0.95;;;7.30;94.30;;;;;;5010606;28;20030;-75
2021/01/29 04:21:26;;;;;;;3.05;1.00;;;7.30;94.30;;;;;;5009911;28;20038;-75
2021/01/29 04:24:11;;;;;;;1.20;0.70;;;7.40;94.40;;;;;;5011583;28;20022;-74
2021/01/29 04:26:49;;;;;;;1.75;0.77;;;7.40;94.30;;;;;;5011607;28;20022;-74
2021/01/29 04:29:22;;;;;;;1.42;0.77;;;7.40;94.30;;;;;;5000939;28;20394;-75
2021/01/29 04:31:51;;;;;;;2.05;0.90;;;7.40;94.30;;;;;;5013409;28;20048;-74
2021/01/29 04:34:23;;;;;;;1.30;1.10;;;7.40;94.30;;;;;;5030422;28;20029;-75
2021/01/29 04:36:52;;;;;;;1.50;0.85;;;7.40;94.30;;;;;;5013665;28;20438;-75
2021/01/29 04:39:35;;;;;;;1.42;0.80;;;7.50;94.30;;;;;;5012940;28;20017;-75
2021/01/29 04:42:12;;;;;;;2.65;1.08;;;7.50;94.40;;;;;;5031188;28;20065;-75
2021/01/29 04:45:00;;;;;;;1.95;1.05;;;7.50;94.30;;;;;;5031078;28;20354;-73
2021/01/29 04:47:35;;;;;;;2.38;1.25;;;7.60;94.30;;;;;;5030513;28;20017;-74
2021/01/29 04:50:32;;;;;;;2.33;0.70;;;7.50;94.30;;;;;;5031146;28;20018;-74
2021/01/29 04:53:37;;;;;;;2.83;1.30;;;7.50;94.30;;;;;;5022395;28;20029;-74
2021/01/29 04:56:17;;;;;;;1.58;0.80;;;7.50;94.40;;;;;;5016837;28;20032;-75
2021/01/29 04:59:02;;;;;;;2.97;1.20;;;7.50;94.40;;;;;;5019659;28;20021;-74
2021/01/29 05:01:59;;;;;;;2.20;1.10;;;7.50;94.30;;;;;;5022465;28;20034;-75
2021/01/29 05:04:43;;;;;;;2.70;0.98;;;7.50;94.40;;;;;;5017742;28;20515;-74
2021/01/29 05:07:37;;;;;;;2.95;1.10;;;7.60;94.40;;;;;;5024311;28;20029;-74
2021/01/29 05:10:24;;;;;;;2.92;1.02;;;7.60;94.40;;;;;;5023399;28;20076;-74
2021/01/29 05:13:20;;;;;;;2.00;0.85;;;7.60;94.40;;;;;;5023881;28;20029;-73
2021/01/29 05:15:55;;;;;;;1.50;0.73;;;7.60;94.40;;;;;;5016547;28;20022;-74
2021/01/29 05:18:41;;;;;;;1.38;0.85;;;7.60;94.40;;;;;;5015876;28;20505;-74
2021/01/29 05:21:28;;;;;;;1.67;0.90;;;7.60;94.40;;;;;;5016401;28;20596;-74
2021/01/29 05:24:03;;;;;;;2.40;1.55;;;7.60;94.40;;;;;;5016482;28;20060;-74
2021/01/29 05:26:50;;;;;;;2.60;1.20;;;7.60;94.40;;;;;;5015824;28;20071;-74
2021/01/29 05:29:42;;;;;;;5.00;1.50;;;7.60;94.40;;;;;;5015674;28;20021;-75
2021/01/29 05:32:26;;;;;;;3.42;0.93;;;7.60;94.40;;;;;;5016540;28;20021;-74
2021/01/29 05:35:17;;;;;;;1.13;0.85;;;7.70;94.50;;;;;;5034014;28;20029;-73
2021/01/29 05:38:09;;;;;;;3.25;1.30;;;7.60;94.50;;;;;;5016316;28;20021;-74
2021/01/29 05:40:56;;;;;;;2.67;0.93;;;7.60;94.50;;;;;;4994922;28;20485;-75
2021/01/29 05:43:50;;;;;;;0.85;0.70;;;7.70;94.50;;;;;;5033170;28;20359;-76
2021/01/29 05:46:50;;;;;;;2.75;1.23;;;7.70;94.50;;;;;;5016142;28;20044;-75
2021/01/29 05:49:23;;;;;;;1.92;0.75;;;7.70;94.50;;;;;;5016307;28;20105;-75
2021/01/29 05:52:13;;;;;;;1.35;0.88;;;7.70;94.50;;;;;;5033917;28;20079;-74
2021/01/29 05:55:06;;;;;;;1.00;0.75;;;7.70;94.50;;;;;;5014749;28;20032;-75
2021/01/29 05:57:59;;;;;;;2.17;0.70;;;7.80;94.50;;;;;;5015144;28;20026;-74
2021/01/29 06:00:55;;;;;;;0.70;0.65;;;7.80;94.50;;;;;;5033124;28;20029;-74
2021/01/29 06:03:40;;;;;;;4.28;1.98;;;7.80;94.50;;;;;;5015135;28;20374;-74
2021/01/29 06:06:22;;;;;;;3.08;1.35;;;7.80;94.50;;;;;;5033664;28;20060;-73
2021/01/29 06:09:15;;;;;;;4.20;2.35;;;7.90;94.60;;;;;;5015651;28;20087;-73
2021/01/29 06:12:04;;;;;;;3.35;1.90;;;8.00;94.90;;;;;;5014884;28;20034;-73
2021/01/29 06:15:17;;;;;;;3.75;2.05;;;8.10;94.60;;;;;;5032390;28;20049;-74
2021/01/29 06:18:26;;;;;;;4.10;1.70;;;8.10;94.70;;;;;;4945062;28;20163;-73
2021/01/29 06:21:01;;;;;;;4.15;1.92;;;8.20;94.70;;;;;;5033157;28;20489;-73
2021/01/29 06:23:44;;;;;;;2.58;1.42;;;8.30;94.80;;;;;;5014803;28;20029;-73
2021/01/29 06:26:29;;;;;;;3.30;1.60;;;8.30;94.80;;;;;;5033397;28;20458;-73
2021/01/29 06:29:08;;;;;;;3.15;1.70;;;8.40;94.80;;;;;;5015465;28;20372;-74
2021/01/29 06:32:01;;;;;;;5.80;1.75;;;8.40;94.80;;;;;;5032748;28;20101;-74
2021/01/29 06:34:30;;;;;;;5.60;1.70;;;8.50;94.80;;;;;;5000902;28;20036;-74
2021/01/29 06:37:26;;;;;;;4.47;1.77;;;8.50;94.80;;;;;;5032725;28;20033;-73
2021/01/29 06:40:04;;;;;;;3.45;2.03;;;8.60;94.80;;;;;;5014728;28;20133;-72
2021/01/29 06:42:49;;;;;;;5.45;2.13;;;8.60;94.90;;;;;;5014318;28;20037;-72
2021/01/29 06:45:29;;;;;;;5.15;2.47;;;8.60;94.90;;;;;;5014845;28;20037;-72
2021/01/29 06:48:13;;;;;;;2.63;1.52;;;8.60;95.00;;;;;;5032894;28;20101;-74
2021/01/29 06:50:58;;;;;;;7.38;2.65;;;8.60;95.10;;;;;;5032235;28;20018;-73
2021/01/29 06:53:44;;;;;;;7.40;2.47;;;8.60;95.10;;;;;;5031876;28;20026;-75
2021/01/29 06:56:51;;;;;;;5.22;2.17;;;8.70;95.10;;;;;;5032341;28;20104;-73
2021/01/29 06:59:36;;;;;;;5.97;2.00;;;8.70;95.20;;;;;;4998608;28;20457;-73
2021/01/29 07:02:21;;;;;;;4.82;1.92;;;8.70;95.20;;;;;;5032340;28;20112;-72
2021/01/29 07:05:11;;;;;;;5.68;2.17;;;8.70;95.20;;;;;;5014054;28;20022;-73
2021/01/29 07:08:01;;;;;;;5.50;2.00;;;8.70;95.20;;;;;;5031790;28;20021;-72
2021/01/29 07:10:51;;;;;;;4.78;2.33;;;8.70;95.30;;;;;;5013879;28;20453;-73
2021/01/29 07:14:01;;;;;;;4.65;2.53;;;8.70;95.30;;;;;;5013926;28;20047;-74
2021/01/29 07:16:51;;;;;;;3.38;1.80;;;8.70;95.40;;;;;;4993446;28;20069;-74
2021/01/29 07:19:55;;;;;;;3.88;1.95;;;8.70;95.50;;;;;;5032090;28;20473;-73
2021/01/29 07:22:45;;;;;;;4.00;1.75;;;8.70;95.50;;;;;;4993712;28;20485;-73
2021/01/29 07:25:14;;;;;;;3.72;2.00;;;8.80;95.50;;;;;;5014284;28;20450;-73
2021/01/29 07:27:45;;;;;;;4.25;1.70;;;8.70;95.40;;;;;;5031349;28;20490;-73
2021/01/29 07:30:31;;;;;;;4.80;2.42;;;8.80;95.50;;;;;;5031977;28;20025;-73
2021/01/29 07:33:21;;;;;;;5.63;2.88;;;8.80;95.50;;;;;;5032286;28;20078;-73
2021/01/29 07:35:53;;;;;;;3.20;1.85;;;8.80;95.80;;;;;;5013723;28;20025;-73
2021/01/29 07:38:31;;;;;;;4.65;1.80;;;8.80;95.50;;;;;;5031565;28;20378;-73
2021/01/29 07:41:26;;;;;;;3.90;2.30;;;8.80;95.60;;;;;;5014074;28;20053;-72
2021/01/29 07:44:08;;;;;;;4.85;2.38;;;8.90;95.60;;;;;;5031866;28;20107;-72
2021/01/29 07:46:55;;;;;;;5.65;2.75;;;8.90;95.60;;;;;;5013433;28;20148;-72
2021/01/29 07:49:31;;;;;;;4.20;2.45;;;8.90;95.80;;;;;;5014070;28;20026;-72
2021/01/29 07:52:18;;;;;;;6.13;2.55;;;8.90;95.60;;;;;;5032073;28;20026;-73
2021/01/29 07:55:12;;;;;;;6.53;2.47;;;8.90;95.60;;;;;;5031024;28;20021;-72
2021/01/29 07:57:50;;;;;;;4.43;2.17;;;8.90;95.60;;;;;;5031214;28;20079;-71
2021/01/29 08:00:26;;;;;;;3.00;1.67;;;8.90;95.70;;;;;;5031557;28;20025;-72
2021/01/29 08:03:04;;;;;;;3.70;1.92;;;8.80;95.70;;;;;;5031480;28;20427;-71
2021/01/29 08:05:37;;;;;;;4.85;2.28;;;8.80;95.70;;;;;;5031359;28;20032;-73
2021/01/29 08:08:10;;;;;;;2.85;1.60;;;8.90;95.80;;;;;;5031949;28;20025;-72
2021/01/29 08:10:43;;;;;;;2.28;1.25;;;8.80;95.80;;;;;;5013258;28;20115;-72
2021/01/29 08:13:31;;;;;;;1.42;1.15;;;8.90;95.80;;;;;;5032001;28;20033;-72
2021/01/29 08:16:29;;;;;;;1.67;1.00;;;8.80;95.70;;;;;;5031518;28;20035;-71
2021/01/29 08:19:05;;;;;;;2.17;1.02;;;8.80;95.90;;;;;;5031654;28;20124;-72
2021/01/29 08:21:47;;;;;;;2.10;1.30;;;8.80;96.00;;;;;;5030779;28;20037;-72
2021/01/29 08:24:40;;;;;;;1.58;1.15;;;8.80;96.10;;;;;;5013611;28;20020;-72
2021/01/29 08:27:27;;;;;;;1.98;1.30;;;8.90;96.10;;;;;;5034420;28;20380;-72
2021/01/29 08:30:30;;;;;;;2.55;1.40;;;8.90;96.10;;;;;;5034369;28;20044;-72
2021/01/29 08:33:27;;;;;;;2.65;1.30;;;9.00;96.00;;;;;;5034803;28;20067;-72
2021/01/29 08:36:06;;;;;;;4.32;1.73;;;9.00;96.00;;;;;;5034654;28;20131;-72
2021/01/29 08:38:55;;;;;;;4.68;1.98;;;9.00;96.00;;;;;;5034205;28;20024;-74
2021/01/29 08:41:53;;;;;;;3.78;1.70;;;9.00;96.00;;;;;;5034927;28;20030;-72
2021/01/29 08:44:56;;;;;;;3.65;2.05;;;9.10;96.00;;;;;;5034629;28;20111;-73
2021/01/29 08:48:00;;;;;;;2.42;1.60;;;9.10;95.90;;;;;;5034949;28;20079;-73
2021/01/29 08:50:53;;;;;;;3.63;2.00;;;9.10;96.00;;;;;;5030119;28;20490;-73
2021/01/29 08:53:52;;;;;;;3.03;1.80;;;9.10;96.00;;;;;;5035065;28;20049;-73
2021/01/29 08:56:31;;;;;;;2.00;1.35;;;9.10;96.00;;;;;;5034490;28;20136;-74
2021/01/29 08:59:04;;;;;;;4.97;1.27;;;9.10;96.00;;;;;;5017227;28;20480;-73
2021/01/29 09:01:51;;;;;;;2.90;1.75;;;9.10;96.10;;;;;;5034525;28;20025;-73
2021/01/29 09:04:28;;;;;;;2.85;1.58;;;9.10;96.20;;;;;;5016712;28;20477;-73
2021/01/29 09:06:57;;;;;;;3.08;1.42;;;9.10;96.10;;;;;;5034028;28;20030;-73
2021/01/29 09:09:27;;;;;;;5.95;1.73;;;9.10;96.20;;;;;;5034658;28;20025;-73
2021/01/29 09:11:56;;;;;;;2.88;1.65;;;9.10;96.20;;;;;;5033986;28;20101;-73
2021/01/29 09:14:36;;;;;;;4.18;1.58;;;9.10;96.20;;;;;;5034389;28;20029;-73
2021/01/29 09:17:15;;;;;;;4.68;1.65;;;9.10;96.20;;;;;;5034422;28;20022;-73
2021/01/29 09:19:53;;;;;;;4.70;1.63;;;9.00;96.30;;;;;;5033489;28;20028;-73
2021/01/29 09:22:44;;;;;;;2.50;1.77;;;9.10;96.30;;;;;;5016436;28;20527;-73
2021/01/29 09:25:21;;;;;;;2.43;1.17;;;9.10;96.30;;;;;;5034772;28;20478;-73
2021/01/29 09:28:12;;;;;;;5.53;1.48;;;9.10;96.30;;;;;;5015947;28;20363;-73
2021/01/29 09:30:52;;;;;;;;;;;9.10;96.20;;;;;;5034181;28;20064;-73
2021/01/29 09:33:38;;;;;;;4.88;1.75;;;9.00;96.20;;;;;;5034011;28;19912;-73
2021/01/29 09:36:11;;;;;;;4.55;1.95;;;9.00;96.30;;;;;;5033518;28;20025;-73
2021/01/29 09:38:43;;;;;;;4.03;2.00;;;9.00;96.30;;;;;;5033432;28;20084;-73
2021/01/29 09:41:19;;;;;;;6.72;2.33;;;8.90;96.30;;;;;;5015626;28;20128;-73
2021/01/29 09:44:02;;;;;;;5.72;1.70;;;9.00;96.30;;;;;;5032721;28;20490;-73
2021/01/29 09:46:30;;;;;;;6.80;2.17;;;9.00;96.30;;;;;;5033747;28;20108;-73
2021/01/29 09:49:11;;;;;;;2.95;1.60;;;8.90;96.40;;;;;;5015105;28;20029;-72
2021/01/29 09:52:04;;;;;;;2.63;1.13;;;9.00;96.40;;;;;;5032997;28;20032;-73
2021/01/29 09:54:51;;;;;;;3.95;1.33;;;9.00;96.30;;;;;;5016013;28;20025;-73
2021/01/29 09:57:21;;;;;;;6.75;1.02;;;9.00;96.30;;;;;;5033610;28;20033;-73
2021/01/29 09:59:56;;;;;;;5.18;1.80;;;9.00;96.30;;;;;;5015109;28;20112;-74
2021/01/29 10:02:43;;;;;;;2.80;1.15;;;9.00;96.30;;;;;;5033178;28;20037;-73
2021/01/29 10:06:03;;;;;;;1.67;1.02;;;9.00;96.30;;;;;;5033623;28;20427;-73
2021/01/29 10:08:29;;;;;;;6.28;1.00;;;9.00;96.20;;;;;;4933625;29;20063;-73
2021/01/29 10:11:24;;;;;;;3.80;1.05;;;9.00;96.20;;;;;;5011580;28;20072;-73
2021/01/29 10:14:05;;;;;;;6.15;1.88;;;9.00;96.20;;;;;;5032693;28;20101;-73
2021/01/29 10:16:46;;;;;;;7.20;3.47;;;9.00;96.20;;;;;;5033233;28;20032;-74
2021/01/29 10:19:38;;;;;;;4.97;2.53;;;8.90;96.20;;;;;;5033411;28;20022;-74
2021/01/29 10:22:28;;;;;;;4.97;1.35;;;8.90;96.20;;;;;;5033203;28;20531;-74
2021/01/29 10:25:19;;;;;;;5.88;2.05;;;8.90;96.20;;;;;;5032138;28;20032;-74
2021/01/29 10:27:59;;;;;;;5.93;1.73;;;9.00;96.20;;;;;;5032394;28;20084;-75
2021/01/29 10:30:41;;;;;;;12.82;3.08;;;9.00;96.20;;;;;;5015085;28;20386;-74
2021/01/29 10:33:27;;;;;;;0.98;0.85;;;8.90;96.20;;;;;;5015145;28;20022;-74
2021/01/29 10:36:10;;;;;;;2.85;1.30;;;9.00;96.20;;;;;;5014119;28;20025;-75
2021/01/29 10:39:01;;;;;;;11.32;2.15;;;9.00;96.20;;;;;;5032603;28;20385;-74
2021/01/29 10:41:48;;;;;;;17.20;2.22;;;9.10;96.20;;;;;;5014674;28;20049;-75
2021/01/29 10:44:21;;;;;;;4.60;1.40;;;9.10;96.10;;;;;;5032762;28;20054;-74
2021/01/29 10:47:14;;;;;;;5.30;1.67;;;9.10;96.10;;;;;;5031730;28;20029;-75
2021/01/29 10:49:57;;;;;;;5.35;1.90;;;9.10;96.10;;;;;;5013706;28;20331;-76
2021/01/29 10:53:08;;;;;;;7.63;1.67;;;9.20;96.10;;;;;;5014492;28;20025;-74
2021/01/29 10:55:38;;;;;;;4.45;1.63;;;9.20;96.00;;;;;;5014862;28;20143;-74
2021/01/29 10:58:42;;;;;;;10.63;2.10;;;9.20;96.00;;;;;;5031875;28;20109;-74
2021/01/29 11:01:30;;;;;;;2.10;1.23;;;9.30;96.00;;;;;;4964956;28;20045;-74
2021/01/29 11:04:08;;;;;;;4.78;1.40;;;9.40;95.90;;;;;;5014233;28;20378;-74
2021/01/29 11:06:43;;;;;;;2.65;1.50;;;9.40;95.90;;;;;;5014534;28;20097;-74
2021/01/29 11:09:35;;;;;;;8.40;1.60;;;9.50;95.90;;;;;;5032296;28;20112;-74
2021/01/29 11:12:13;;;;;;;3.60;1.17;;;9.50;95.80;;;;;;5030920;28;20473;-74
2021/01/29 11:14:47;;;;;;;4.53;1.27;;;9.50;95.80;;;;;;5032341;28;20037;-73
2021/01/29 11:17:22;;;;;;;3.53;1.42;;;9.60;95.80;;;;;;5032302;28;20477;-75
2021/01/29 11:19:51;;;;;;;2.88;1.13;;;9.60;95.70;;;;;;5014282;28;20407;-75
2021/01/29 11:22:17;;;;;;;5.57;1.25;;;9.60;95.70;;;;;;5018479;28;20030;-75
2021/01/29 11:24:56;;;;;;;16.45;2.20;;;9.70;95.70;;;;;;5038621;28;20057;-74
2021/01/29 11:27:52;;;;;;;3.75;1.63;;;9.70;95.60;;;;;;5014701;28;20021;-75
2021/01/29 11:30:28;;;;;;;4.05;1.05;;;9.70;95.60;;;;;;5031872;28;20029;-75
2021/01/29 11:32:58;;;;;;;6.68;1.45;;;9.80;95.60;;;;;;5013691;28;20026;-75
2021/01/29 11:35:27;;;;;;;3.38;1.63;;;9.80;95.60;;;;;;5031900;28;20104;-76
2021/01/29 11:37:55;;;;;;;9.65;1.70;;;9.90;95.60;;;;;;5031321;28;20022;-76
2021/01/29 11:40:24;;;;;;;7.40;1.58;;;9.80;95.50;;;;;;5032003;28;20029;-76
2021/01/29 11:43:02;;;;;;;2.42;1.23;;;9.80;95.50;;;;;;5030813;28;20390;-76
2021/01/29 11:45:33;;;;;;;5.82;2.05;;;9.80;95.50;;;;;;5032070;28;20021;-76
2021/01/29 11:48:24;;;;;;;5.80;1.67;;;9.80;95.50;;;;;;5031233;28;20021;-76
2021/01/29 11:51:18;;;;;;;3.75;1.70;;;9.80;95.50;;;;;;5014073;28;20038;-76
2021/01/29 11:53:58;;;;;;;5.93;3.40;;;9.90;95.40;;;;;;5014302;28;20367;-75
2021/01/29 11:56:31;;;;;;;6.65;2.15;;;10.00;95.40;;;;;;5014161;28;20026;-75
2021/01/29 11:59:21;;;;;;;8.43;2.20;;;10.00;95.20;;;;;;5030971;28;20060;-75
2021/01/29 12:02:19;;;;;;;6.93;2.45;;;10.10;95.20;;;;;;5017382;28;20029;-76
2021/01/29 12:05:03;;;;;;;5.93;3.42;;;10.20;95.00;;;;;;4978345;28;20095;-77
2021/01/29 12:07:33;;;;;;;3.92;1.73;;;10.30;94.90;;;;;;5017779;28;20022;-75
2021/01/29 12:10:14;;;;;;;4.20;1.63;;;10.30;94.90;;;;;;5016953;28;20064;-76
2021/01/29 12:13:01;;;;;;;2.78;1.38;;;10.30;94.80;;;;;;5017672;28;20032;-75
2021/01/29 12:15:39;;;;;;;5.88;1.52;;;10.30;94.80;;;;;;5035391;28;20072;-76
2021/01/29 12:18:11;;;;;;;2.97;1.25;;;10.40;94.80;;;;;;5034688;28;20026;-76
2021/01/29 12:20:40;;;;;;;6.40;1.50;;;10.40;94.80;;;;;;5017507;28;20017;-76
2021/01/29 12:23:41;;;;;;;2.85;1.30;;;10.30;94.80;;;;;;5034194;28;20477;-75
2021/01/29 12:26:12;;;;;;;7.10;1.97;;;10.40;94.70;;;;;;5034332;28;20221;-76
2021/01/29 12:29:05;;;;;;;3.55;1.75;;;10.30;94.70;;;;;;5016897;28;20182;-76
2021/01/29 12:31:33;;;;;;;8.05;1.73;;;10.30;94.70;;;;;;5017360;28;20051;-75
2021/01/29 12:34:23;;;;;;;6.03;1.80;;;10.30;94.70;;;;;;5016121;28;20021;-75
2021/01/29 12:36:58;;;;;;;3.70;1.17;;;10.40;94.70;;;;;;5034246;28;20181;-76
2021/01/29 12:39:35;;;;;;;8.38;2.03;;;10.40;94.70;;;;;;5035017;28;20026;-75
2021/01/29 12:42:27;;;;;;;4.72;2.13;;;10.40;94.60;;;;;;5033853;28;20036;-75
2021/01/29 12:45:05;;;;;;;2.55;1.40;;;10.40;94.60;;;;;;5033708;28;20049;-76
2021/01/29 12:47:39;;;;;;;3.90;1.30;;;10.40;94.70;;;;;;5016794;28;20063;-74
2021/01/29 12:50:32;;;;;;;3.45;1.70;;;10.30;94.70;;;;;;5033949;28;20045;-74
2021/01/29 12:53:21;;;;;;;3.55;1.67;;;10.30;94.70;;;;;;5016039;28;20532;-74
2021/01/29 12:56:12;;;;;;;6.60;1.77;;;10.20;94.80;;;;;;5034503;28;20044;-73
2021/01/29 12:59:01;;;;;;;3.83;1.50;;;10.10;94.90;;;;;;5034116;28;20072;-73
2021/01/29 13:01:52;;;;;;;7.95;1.60;;;10.00;95.00;;;;;;5016582;28;20049;-75
2021/01/29 13:04:30;;;;;;;5.60;2.08;;;9.90;95.10;;;;;;5034067;28;20025;-74
2021/01/29 13:07:15;;;;;;;2.15;1.48;;;9.80;95.20;;;;;;5015613;28;20079;-75
2021/01/29 13:10:11;;;;;;;5.40;1.85;;;9.80;95.30;;;;;;5033934;28;20367;-72
2021/01/29 13:13:15;;;;;;;2.78;0.95;;;9.70;95.30;;;;;;5002334;28;20037;-75
2021/01/29 13:15:52;;;;;;;3.10;1.38;;;9.70;95.40;;;;;;5016383;28;20025;-75
2021/01/29 13:18:25;;;;;;;5.72;1.50;;;9.60;95.50;;;;;;5016481;28;20473;-74
2021/01/29 13:20:56;;;;;;;2.75;1.33;;;9.60;95.50;;;;;;5033389;28;20079;-75
2021/01/29 13:23:42;;;;;;;3.35;1.20;;;9.50;95.60;;;;;;5033976;28;20029;-73
2021/01/29 13:26:14;;;;;;;6.22;1.95;;;9.50;95.50;;;;;;5032613;28;20038;-73
2021/01/29 13:29:06;;;;;;;1.42;1.23;;;9.50;95.70;;;;;;5033962;28;20091;-72
2021/01/29 13:31:35;;;;;;;1.73;1.10;;;9.60;95.70;;;;;;5034007;28;20021;-73
2021/01/29 13:34:15;;;;;;;2.50;1.20;;;9.60;96.00;;;;;;5032800;28;20021;-73
2021/01/29 13:37:14;;;;;;;1.48;1.05;;;9.50;95.70;;;;;;5033915;28;20107;-73
2021/01/29 13:39:42;;;;;;;3.45;1.55;;;9.50;95.70;;;;;;5033723;28;20021;-74
2021/01/29 13:42:11;;;;;;;2.95;1.05;;;9.50;95.80;;;;;;5033257;28;20477;-72
2021/01/29 13:44:46;;;;;;;1.95;0.93;;;9.60;95.90;;;;;;5033977;28;20056;-73
2021/01/29 13:47:26;;;;;;;4.07;1.50;;;9.70;95.80;;;;;;5033376;28;20116;-73
2021/01/29 13:49:53;;;;;;;2.85;1.30;;;9.60;95.80;;;;;;5033739;28;20033;-74
2021/01/29 13:52:32;;;;;;;2.45;0.90;;;9.60;95.80;;;;;;5033740;28;20029;-73
2021/01/29 13:55:34;;;;;;;1.83;1.10;;;9.70;95.90;;;;;;5033271;28;20029;-74
2021/01/29 13:58:04;;;;;;;2.00;1.20;;;9.70;95.80;;;;;;5015530;28;20353;-75
2021/01/29 14:00:35;;;;;;;6.88;1.42;;;9.80;95.80;;;;;;5015865;28;20025;-74
2021/01/29 14:03:09;;;;;;;5.80;1.30;;;9.80;95.70;;;;;;5033055;28;20156;-75
2021/01/29 14:05:35;;;;;;;2.00;1.40;;;9.80;95.70;;;;;;5015873;28;20103;-75
2021/01/29 14:08:04;;;;;;;2.97;1.30;;;9.80;95.70;;;;;;5032785;28;20438;-75